Time;durP1;ratioP1;P1;durP2;ratioP2;P2;SDS_P1;SDS_P2;PMS_P1;PMS_P2;Temp;Humidity;BMP_temperature;BMP_pressure;BME280_temperature;BME280_humidity;BME280_pressure;Samples;Min_cycle;Max_cycle;Signal;HPM_P1;HPM_P2
2021/05/02 00:02:18;;;;;;;17.13;9.73;;;;;;;7.23;100.00;95564.97;5059338;28;20200;-71
2021/05/02 00:04:44;;;;;;;18.37;10.43;;;;;;;7.22;100.00;95558.94;5060301;28;20204;-72
2021/05/02 00:07:10;;;;;;;17.57;9.43;;;;;;;7.30;100.00;95564.13;5058687;28;20279;-71
2021/05/02 00:09:36;;;;;;;16.53;9.80;;;;;;;7.24;100.00;95564.81;5059338;28;20227;-71
2021/05/02 00:12:02;;;;;;;19.03;10.40;;;;;;;7.24;100.00;95570.03;5059127;28;20200;-71
2021/05/02 00:14:28;;;;;;;15.77;9.33;;;;;;;7.19;100.00;95569.75;5060053;28;20216;-71
2021/05/02 00:16:55;;;;;;;18.10;10.37;;;;;;;7.19;100.00;95567.13;5058809;28;20208;-71
2021/05/02 00:19:22;;;;;;;19.67;10.17;;;;;;;7.19;100.00;95569.75;5059679;28;20233;-71
2021/05/02 00:21:50;;;;;;;18.67;10.30;;;;;;;7.23;100.00;95578.91;5059311;28;20254;-71
2021/05/02 00:24:18;;;;;;;21.60;11.37;;;;;;;7.10;100.00;95580.44;5056457;28;20748;-71
2021/05/02 00:26:44;;;;;;;21.13;11.60;;;;;;;7.06;100.00;95582.59;5058225;28;20211;-72
2021/05/02 00:29:14;;;;;;;19.80;10.57;;;;;;;7.05;100.00;95588.00;5059144;28;20213;-71
2021/05/02 00:31:41;;;;;;;17.43;9.50;;;;;;;7.06;100.00;95594.88;5059382;28;20205;-71
2021/05/02 00:34:07;;;;;;;14.47;7.83;;;;;;;7.08;100.00;95598.16;5059133;28;21010;-71
2021/05/02 00:36:34;;;;;;;21.97;11.80;;;;;;;7.03;100.00;95596.03;5058737;28;20212;-71
2021/05/02 00:39:00;;;;;;;19.43;9.80;;;;;;;6.97;100.00;95591.47;5058479;28;20224;-71
2021/05/02 00:41:29;;;;;;;19.87;10.40;;;;;;;6.98;100.00;95595.72;5058627;28;20200;-71
2021/05/02 00:43:57;;;;;;;19.13;9.97;;;;;;;6.97;100.00;95595.91;5059665;28;20197;-71
2021/05/02 00:46:28;;;;;;;19.77;10.73;;;;;;;6.99;100.00;95597.38;5058526;28;20207;-71
2021/05/02 00:48:59;;;;;;;20.07;10.63;;;;;;;7.03;100.00;95605.72;5058699;28;20216;-71
2021/05/02 00:51:28;;;;;;;17.30;10.03;;;;;;;7.00;100.00;95606.88;5058867;28;20219;-71
2021/05/02 00:54:14;;;;;;;16.90;9.27;;;;;;;7.02;100.00;95609.31;5059579;28;20208;-71
2021/05/02 00:56:46;;;;;;;18.53;9.93;;;;;;;7.03;100.00;95610.94;5058418;28;20212;-71
2021/05/02 00:59:22;;;;;;;17.73;9.50;;;;;;;7.01;100.00;95610.28;5058921;28;20239;-71
2021/05/02 01:01:52;;;;;;;20.70;10.63;;;;;;;7.04;100.00;95615.16;5058683;28;20196;-71
2021/05/02 01:04:22;;;;;;;18.60;10.23;;;;;;;7.05;100.00;95619.44;5058513;28;20201;-71
2021/05/02 01:06:51;;;;;;;19.07;10.03;;;;;;;6.98;100.00;95618.50;5057897;28;20201;-71
2021/05/02 01:09:21;;;;;;;26.70;12.63;;;;;;;6.90;100.00;95629.00;5058432;28;20229;-71
2021/05/02 01:11:48;;;;;;;21.40;11.10;;;;;;;6.84;100.00;95632.28;5058089;28;20365;-71
2021/05/02 01:14:22;;;;;;;23.50;12.27;;;;;;;6.81;100.00;95632.59;5058094;28;20201;-71
2021/05/02 01:16:50;;;;;;;21.77;11.03;;;;;;;6.71;100.00;95635.44;5057472;28;20208;-71
2021/05/02 01:19:16;;;;;;;18.73;9.37;;;;;;;6.74;100.00;95631.66;5058198;28;20231;-71
2021/05/02 01:21:45;;;;;;;16.30;9.30;;;;;;;6.69;100.00;95644.44;5057941;28;20200;-71
2021/05/02 01:24:12;;;;;;;16.00;8.73;;;;;;;6.69;100.00;95647.06;5054952;28;20204;-71
2021/05/02 01:26:41;;;;;;;18.60;9.50;;;;;;;6.54;100.00;95643.47;5056903;28;20207;-71
2021/05/02 01:29:08;;;;;;;13.47;7.07;;;;;;;6.38;100.00;95643.53;5058171;28;20308;-71
2021/05/02 01:31:34;;;;;;;14.77;8.23;;;;;;;6.38;100.00;95654.00;5058711;28;20200;-71
2021/05/02 01:34:00;;;;;;;19.13;9.57;;;;;;;6.24;100.00;95649.44;5057124;28;20564;-71
2021/05/02 01:36:27;;;;;;;21.70;11.87;;;;;;;6.16;100.00;95665.13;5057050;28;20208;-71
2021/05/02 01:38:55;;;;;;;16.80;8.60;;;;;;;6.17;100.00;95664.16;5058106;28;20697;-71
2021/05/02 01:41:23;;;;;;;12.53;7.13;;;;;;;6.15;100.00;95663.50;5058026;28;20192;-71
2021/05/02 01:43:49;;;;;;;19.47;9.87;;;;;;;6.10;100.00;95670.22;5057912;28;20289;-71
2021/05/02 01:46:20;;;;;;;14.73;8.27;;;;;;;6.05;100.00;95668.06;5057147;28;20595;-71
2021/05/02 01:48:46;;;;;;;21.40;10.13;;;;;;;6.04;100.00;95674.28;5057135;28;20250;-71
2021/05/02 01:51:14;;;;;;;13.33;6.53;;;;;;;5.99;100.00;95674.94;5057660;28;20200;-71
2021/05/02 01:53:41;;;;;;;21.40;10.40;;;;;;;5.96;100.00;95686.53;5058752;28;20208;-71
2021/05/02 01:56:07;;;;;;;16.90;8.10;;;;;;;5.97;100.00;95687.34;5056352;28;20196;-71
2021/05/02 01:58:35;;;;;;;15.47;9.43;;;;;;;5.82;100.00;95683.75;5057919;28;20228;-71
2021/05/02 02:01:04;;;;;;;24.97;13.73;;;;;;;5.83;100.00;95688.00;5058204;28;20914;-71
2021/05/02 02:03:30;;;;;;;22.73;12.40;;;;;;;5.79;100.00;95704.97;5058050;28;20200;-71
2021/05/02 02:05:58;;;;;;;15.53;8.27;;;;;;;5.68;100.00;95703.47;5056028;28;20209;-71
2021/05/02 02:08:24;;;;;;;22.50;12.10;;;;;;;5.68;100.00;95705.25;5058005;28;20216;-71
2021/05/02 02:10:52;;;;;;;18.77;10.67;;;;;;;5.64;100.00;95696.91;5057145;28;20756;-71
2021/05/02 02:13:19;;;;;;;25.37;13.40;;;;;;;5.65;100.00;95709.00;5057081;28;20609;-71
2021/05/02 02:15:47;;;;;;;24.47;12.20;;;;;;;5.59;100.00;95708.84;5055740;28;20243;-71
2021/05/02 02:18:15;;;;;;;27.20;14.43;;;;;;;5.63;100.00;95707.53;5056927;28;20224;-71
2021/05/02 02:20:43;;;;;;;18.50;10.70;;;;;;;5.63;100.00;95712.75;5056283;28;20670;-70
2021/05/02 02:23:16;;;;;;;18.97;10.27;;;;;;;5.56;100.00;95711.75;5056313;28;20566;-71
2021/05/02 02:25:44;;;;;;;18.50;10.47;;;;;;;5.57;100.00;95722.03;5056210;28;20675;-71
2021/05/02 02:28:13;;;;;;;20.90;10.80;;;;;;;5.63;100.00;95723.22;5056110;28;20227;-71
2021/05/02 02:30:41;;;;;;;24.60;13.90;;;;;;;5.64;100.00;95724.88;5056389;28;20196;-71
2021/05/02 02:33:08;;;;;;;23.13;12.20;;;;;;;5.66;100.00;95720.28;5056146;28;20709;-71
2021/05/02 02:35:46;;;;;;;25.23;13.33;;;;;;;5.62;100.00;95729.41;5055420;28;20208;-71
2021/05/02 02:38:15;;;;;;;23.13;11.10;;;;;;;5.60;100.00;95731.34;5055993;28;20231;-71
2021/05/02 02:40:43;;;;;;;20.30;11.40;;;;;;;5.52;100.00;95733.94;5055525;28;20236;-71
2021/05/02 02:43:11;;;;;;;24.67;12.70;;;;;;;5.56;100.00;95735.28;5054653;28;20227;-71
2021/05/02 02:45:38;;;;;;;25.37;13.73;;;;;;;5.51;100.00;95737.53;5055498;28;20201;-71
2021/05/02 02:48:06;;;;;;;24.40;12.97;;;;;;;5.55;100.00;95733.66;5055857;28;20204;-71
2021/05/02 02:50:33;;;;;;;26.57;14.20;;;;;;;5.52;100.00;95739.19;5056356;28;20215;-71
2021/05/02 02:53:04;;;;;;;19.47;10.70;;;;;;;5.50;100.00;95749.00;5055442;28;20197;-71
2021/05/02 02:55:31;;;;;;;23.67;12.93;;;;;;;5.50;100.00;95743.75;5055186;28;20204;-71
2021/05/02 02:57:59;;;;;;;22.70;12.53;;;;;;;5.45;100.00;95739.00;5055626;28;20229;-71
2021/05/02 03:00:28;;;;;;;24.80;10.97;;;;;;;5.44;100.00;95744.38;5055880;28;20200;-71
2021/05/02 03:02:56;;;;;;;26.57;14.00;;;;;;;5.45;100.00;95738.19;5056135;28;20666;-70
2021/05/02 03:05:24;;;;;;;31.20;17.00;;;;;;;5.46;100.00;95745.06;5055577;28;20212;-70
2021/05/02 03:07:52;;;;;;;26.57;13.87;;;;;;;5.42;100.00;95753.34;5055164;28;20231;-71
2021/05/02 03:10:20;;;;;;;26.20;13.43;;;;;;;5.46;100.00;95758.94;5056020;28;20212;-71
2021/05/02 03:12:49;;;;;;;26.40;13.90;;;;;;;5.44;100.00;95767.91;5056227;28;20279;-71
2021/05/02 03:15:16;;;;;;;29.77;16.27;;;;;;;5.45;100.00;95764.31;5052249;28;20246;-71
2021/05/02 03:17:47;;;;;;;28.80;15.33;;;;;;;5.43;100.00;95767.09;5055969;28;20586;-71
2021/05/02 03:20:15;;;;;;;28.13;14.60;;;;;;;5.48;100.00;95782.28;5056470;28;20728;-71
2021/05/02 03:22:43;;;;;;;22.73;10.30;;;;;;;5.45;100.00;95780.00;5056198;28;20205;-71
2021/05/02 03:25:12;;;;;;;29.47;15.53;;;;;;;5.42;100.00;95780.28;5054858;28;20207;-71
2021/05/02 03:27:45;;;;;;;23.40;11.47;;;;;;;5.41;100.00;95793.50;5056011;28;20211;-71
2021/05/02 03:30:14;;;;;;;26.27;13.33;;;;;;;5.43;100.00;95792.38;5055926;28;20612;-71
2021/05/02 03:32:46;;;;;;;31.07;17.47;;;;;;;5.36;100.00;95795.78;5055738;28;20719;-71
2021/05/02 03:35:14;;;;;;;19.77;11.33;;;;;;;5.41;100.00;95799.56;5055336;28;20215;-71
2021/05/02 03:37:44;;;;;;;29.47;13.40;;;;;;;5.39;100.00;95795.47;5055616;28;20500;-71
2021/05/02 03:40:11;;;;;;;36.40;17.93;;;;;;;5.37;100.00;95805.25;5055648;28;20651;-71
2021/05/02 03:42:37;;;;;;;31.00;16.10;;;;;;;5.36;100.00;95812.28;5055841;28;20322;-71
2021/05/02 03:45:04;;;;;;;31.57;16.13;;;;;;;5.37;100.00;95819.13;5054667;28;20236;-71
2021/05/02 03:47:30;;;;;;;34.33;16.43;;;;;;;5.35;100.00;95815.88;5055246;28;20611;-71
2021/05/02 03:49:56;;;;;;;25.00;13.17;;;;;;;5.37;100.00;95819.13;5055508;28;20216;-71
2021/05/02 03:52:22;;;;;;;35.70;17.00;;;;;;;5.38;100.00;95820.75;5055887;28;20215;-71
2021/05/02 03:54:51;;;;;;;25.47;11.53;;;;;;;5.38;100.00;95831.22;5055115;28;20211;-71
2021/05/02 03:57:18;;;;;;;32.87;16.60;;;;;;;5.39;100.00;95832.84;5055117;28;20399;-71
2021/05/02 03:59:44;;;;;;;33.00;17.07;;;;;;;5.39;100.00;95840.69;5059120;28;20255;-71
2021/05/02 04:02:13;;;;;;;34.80;18.03;;;;;;;5.41;100.00;95841.38;5058658;28;20621;-71
2021/05/02 04:04:40;;;;;;;30.27;15.83;;;;;;;5.36;100.00;95843.63;5059121;28;20522;-71
2021/05/02 04:07:09;;;;;;;34.30;15.03;;;;;;;5.41;100.00;95854.44;5058414;28;20231;-71
2021/05/02 04:09:36;;;;;;;29.43;14.53;;;;;;;5.43;100.00;95851.66;5058979;28;20223;-70
2021/05/02 04:12:02;;;;;;;31.17;16.17;;;;;;;5.40;100.00;95863.25;5058619;28;20220;-71
2021/05/02 04:14:29;;;;;;;31.27;16.53;;;;;;;5.44;100.00;95867.19;5058756;28;20207;-71
2021/05/02 04:16:56;;;;;;;26.07;13.13;;;;;;;5.40;100.00;95865.84;5058183;28;20204;-71
2021/05/02 04:19:23;;;;;;;27.67;12.37;;;;;;;5.48;100.00;95876.34;5058187;28;20239;-71
2021/05/02 04:21:49;;;;;;;23.37;12.40;;;;;;;5.46;100.00;95883.53;5059506;28;20200;-71
2021/05/02 04:24:16;;;;;;;22.03;12.23;;;;;;;5.47;100.00;95887.75;5059525;28;20201;-71
2021/05/02 04:26:43;;;;;;;22.37;11.90;;;;;;;5.50;100.00;95882.25;5058030;28;20203;-71
2021/05/02 04:29:09;;;;;;;24.40;13.20;;;;;;;5.58;100.00;95900.56;5058652;28;20965;-71
2021/05/02 04:31:36;;;;;;;22.07;11.43;;;;;;;5.57;100.00;95904.16;5059505;28;20201;-71
2021/05/02 04:34:02;;;;;;;15.37;8.07;;;;;;;5.55;100.00;95896.47;5058426;28;20216;-71
2021/05/02 04:36:28;;;;;;;16.70;8.53;;;;;;;5.55;100.00;95906.13;5057939;28;20204;-71
2021/05/02 04:38:54;;;;;;;17.53;9.63;;;;;;;5.56;100.00;95912.97;5058694;28;20232;-71
2021/05/02 04:41:20;;;;;;;20.17;12.07;;;;;;;5.61;100.00;95927.22;5057714;28;20219;-71
2021/05/02 04:43:46;;;;;;;19.67;9.73;;;;;;;5.61;100.00;95923.78;5058664;28;20200;-71
2021/05/02 04:46:12;;;;;;;18.50;10.43;;;;;;;5.64;100.00;95926.91;5057311;28;20222;-71
2021/05/02 04:48:41;;;;;;;21.60;11.97;;;;;;;5.64;100.00;95933.94;5058265;28;20227;-71
2021/05/02 04:51:07;;;;;;;26.43;14.13;;;;;;;5.69;100.00;95939.50;5055727;28;20208;-71
2021/05/02 04:53:33;;;;;;;27.13;13.20;;;;;;;5.69;100.00;95939.50;5058636;28;20689;-71
2021/05/02 04:55:59;;;;;;;20.60;11.00;;;;;;;5.68;100.00;95951.75;5057611;28;20200;-71
2021/05/02 04:58:25;;;;;;;28.50;15.90;;;;;;;5.70;100.00;95957.66;5057549;28;20721;-71
2021/05/02 05:00:52;;;;;;;32.67;17.17;;;;;;;5.68;100.00;95953.56;5058505;28;20593;-71
2021/05/02 05:03:18;;;;;;;31.63;17.03;;;;;;;5.68;100.00;95953.56;5058346;28;20688;-71
2021/05/02 05:05:45;;;;;;;32.43;17.33;;;;;;;5.66;100.00;95964.16;5056993;28;20200;-71
2021/05/02 05:08:11;;;;;;;31.37;17.03;;;;;;;5.68;100.00;95969.25;5058007;28;20231;-71
2021/05/02 05:10:37;;;;;;;35.23;19.00;;;;;;;5.71;100.00;95966.31;5057564;28;20212;-71
2021/05/02 05:13:03;;;;;;;30.07;15.17;;;;;;;5.62;100.00;95975.09;5057790;28;20467;-72
2021/05/02 05:15:29;;;;;;;36.00;17.23;;;;;;;5.68;100.00;95974.47;5057566;28;20351;-71
2021/05/02 05:17:55;;;;;;;27.97;13.80;;;;;;;5.64;100.00;95983.59;5057520;28;20205;-70
2021/05/02 05:20:21;;;;;;;32.97;17.23;;;;;;;5.61;100.00;95979.50;5058850;28;20224;-71
2021/05/02 05:22:48;;;;;;;30.10;16.53;;;;;;;5.58;100.00;95989.44;5057989;28;20212;-70
2021/05/02 05:25:15;;;;;;;33.90;16.63;;;;;;;5.64;100.00;95994.06;5057560;28;20472;-71
2021/05/02 05:27:41;;;;;;;36.93;20.23;;;;;;;5.62;100.00;95990.75;5057757;28;20584;-71
2021/05/02 05:30:09;;;;;;;36.83;20.43;;;;;;;5.66;100.00;95997.31;5057152;28;20263;-71
2021/05/02 05:32:35;;;;;;;35.27;19.07;;;;;;;5.70;100.00;95999.50;5057662;28;20200;-70
2021/05/02 05:35:02;;;;;;;38.70;19.07;;;;;;;5.62;100.00;96001.22;5058952;28;20197;-71
2021/05/02 05:37:28;;;;;;;34.17;19.20;;;;;;;5.63;100.00;96010.72;5057680;28;20200;-70
2021/05/02 05:39:55;;;;;;;36.77;20.37;;;;;;;5.67;100.00;96014.66;5057287;28;20789;-71
2021/05/02 05:42:21;;;;;;;36.73;19.70;;;;;;;5.62;100.00;96012.47;5058339;28;20207;-71
2021/05/02 05:44:47;;;;;;;28.60;15.67;;;;;;;5.56;100.00;96020.09;5058481;28;20204;-70
2021/05/02 05:47:13;;;;;;;28.10;12.33;;;;;;;5.54;100.00;96022.88;5057003;28;20200;-71
2021/05/02 05:49:39;;;;;;;37.77;21.07;;;;;;;5.61;100.00;96025.72;5058177;28;20243;-70
2021/05/02 05:52:06;;;;;;;44.20;23.17;;;;;;;5.65;100.00;96022.66;5057326;28;20269;-70
2021/05/02 05:54:32;;;;;;;35.93;19.53;;;;;;;5.62;100.00;96030.78;5057854;28;20246;-70
2021/05/02 05:56:59;;;;;;;36.27;19.57;;;;;;;5.66;100.00;96034.72;5056934;28;20200;-70
2021/05/02 05:59:25;;;;;;;40.33;23.30;;;;;;;5.81;100.00;96032.44;5057657;28;20224;-70
2021/05/02 06:01:51;;;;;;;44.33;22.67;;;;;;;5.85;100.00;96033.75;5057109;28;20326;-70
2021/05/02 06:04:17;;;;;;;41.83;22.77;;;;;;;5.85;100.00;96037.19;5057966;28;20203;-71
2021/05/02 06:06:43;;;;;;;35.60;20.97;;;;;;;5.85;100.00;96047.66;5056976;28;21093;-71
2021/05/02 06:09:09;;;;;;;33.97;19.63;;;;;;;5.86;100.00;96041.44;5056852;28;20307;-70
2021/05/02 06:11:35;;;;;;;34.43;19.30;;;;;;;5.87;100.00;96052.72;5057495;28;20208;-70
2021/05/02 06:14:04;;;;;;;32.77;16.40;;;;;;;5.82;100.00;96055.00;5057659;28;20201;-71
2021/05/02 06:16:31;;;;;;;30.73;17.43;;;;;;;5.81;100.00;96058.56;5057413;28;20201;-72
2021/05/02 06:18:58;;;;;;;23.77;12.80;;;;;;;5.75;100.00;96064.38;5056687;28;20228;-70
2021/05/02 06:21:25;;;;;;;24.67;15.03;;;;;;;5.66;100.00;96070.50;5057134;28;20211;-71
2021/05/02 06:23:52;;;;;;;27.60;15.70;;;;;;;5.74;100.00;96070.56;5056848;28;20201;-71
2021/05/02 06:26:19;;;;;;;30.07;17.83;;;;;;;5.83;100.00;96067.91;5056124;28;20212;-71
2021/05/02 06:28:46;;;;;;;28.23;16.57;;;;;;;5.74;100.00;96068.78;5057507;28;20221;-71
2021/05/02 06:31:13;;;;;;;25.17;13.53;;;;;;;5.73;100.00;96069.75;5057232;28;20196;-70
2021/05/02 06:33:39;;;;;;;31.13;18.20;;;;;;;5.87;100.00;96074.47;5056422;28;20208;-71
2021/05/02 06:36:06;;;;;;;33.23;18.43;;;;;;;5.90;100.00;96068.94;5056634;28;20200;-71
2021/05/02 06:38:32;;;;;;;29.03;15.67;;;;;;;5.77;100.00;96076.34;5056945;28;20244;-70
2021/05/02 06:40:58;;;;;;;31.93;18.30;;;;;;;5.82;100.00;96074.09;5056492;28;20246;-71
2021/05/02 06:43:24;;;;;;;33.23;19.50;;;;;;;5.89;100.00;96085.59;5056821;28;20204;-71
2021/05/02 06:45:50;;;;;;;34.60;18.20;;;;;;;5.99;100.00;96094.16;5056393;28;20203;-71
2021/05/02 06:48:17;;;;;;;29.60;16.60;;;;;;;5.98;100.00;96091.69;5057271;28;20231;-71
2021/05/02 06:50:44;;;;;;;26.53;15.60;;;;;;;5.89;100.00;96087.38;5056658;28;20232;-71
2021/05/02 06:53:10;;;;;;;28.47;16.63;;;;;;;5.95;100.00;96095.44;5056605;28;20197;-70
2021/05/02 06:55:35;;;;;;;26.93;16.10;;;;;;;5.87;100.00;96099.78;5056735;28;20210;-71
2021/05/02 06:58:02;;;;;;;16.63;8.43;;;;;;;5.88;100.00;96107.50;5056187;28;20560;-71
2021/05/02 07:00:28;;;;;;;26.40;15.93;;;;;;;5.92;100.00;96108.00;5056755;28;20601;-71
2021/05/02 07:02:55;;;;;;;26.87;15.57;;;;;;;5.96;100.00;96104.09;5056740;28;20613;-71
2021/05/02 07:05:22;;;;;;;29.03;15.70;;;;;;;5.97;100.00;96113.59;5055476;28;20205;-71
2021/05/02 07:07:48;;;;;;;24.00;13.87;;;;;;;6.00;100.00;96118.53;5056748;28;20264;-71
2021/05/02 07:10:15;;;;;;;24.57;14.70;;;;;;;6.06;100.00;96116.94;5056537;28;20208;-70
2021/05/02 07:12:41;;;;;;;23.73;13.93;;;;;;;6.07;100.00;96110.75;5056893;28;20208;-71
2021/05/02 07:15:08;;;;;;;23.73;14.17;;;;;;;5.97;100.00;96118.81;5055984;28;20196;-71
2021/05/02 07:17:34;;;;;;;23.53;13.53;;;;;;;6.05;100.00;96120.53;5057118;28;20200;-71
2021/05/02 07:20:01;;;;;;;29.00;15.03;;;;;;;6.08;100.00;96117.63;5055844;28;20978;-71
2021/05/02 07:22:29;;;;;;;25.87;14.87;;;;;;;6.21;100.00;96125.88;5056475;28;20201;-71
2021/05/02 07:24:55;;;;;;;16.13;9.17;;;;;;;6.12;100.00;96137.25;5056053;28;20674;-71
2021/05/02 07:27:21;;;;;;;26.83;14.97;;;;;;;6.09;100.00;96129.69;5055249;28;20375;-70
2021/05/02 07:29:47;;;;;;;27.90;15.00;;;;;;;6.17;100.00;96134.19;5055430;28;20217;-71
2021/05/02 07:32:13;;;;;;;27.10;15.70;;;;;;;6.31;100.00;96133.63;5055624;28;20675;-70
2021/05/02 07:34:39;;;;;;;30.20;17.10;;;;;;;6.35;100.00;96130.56;5059660;28;20487;-71
2021/05/02 07:37:06;;;;;;;32.50;18.80;;;;;;;6.53;100.00;96133.94;5058900;28;20332;-71
2021/05/02 07:39:32;;;;;;;32.27;18.23;;;;;;;6.66;100.00;96134.34;5059706;28;20231;-71
2021/05/02 07:41:58;;;;;;;36.20;21.53;;;;;;;6.83;100.00;96133.44;5059357;28;20230;-71
2021/05/02 07:44:24;;;;;;;33.33;19.43;;;;;;;6.81;100.00;96138.00;5059855;28;20200;-70
2021/05/02 07:46:50;;;;;;;37.47;20.97;;;;;;;6.84;100.00;96145.56;5058284;28;20295;-71
2021/05/02 07:49:16;;;;;;;34.83;20.43;;;;;;;6.99;100.00;96141.38;5059459;28;20216;-71
2021/05/02 07:51:42;;;;;;;37.10;21.00;;;;;;;7.08;100.00;96149.09;5059058;28;20235;-71
2021/05/02 07:54:09;;;;;;;35.27;18.90;;;;;;;7.03;100.00;96150.56;5060051;28;20204;-70
2021/05/02 07:56:36;;;;;;;37.50;22.50;;;;;;;7.08;100.00;96153.53;5057897;28;20204;-71
2021/05/02 07:59:02;;;;;;;40.77;22.13;;;;;;;7.03;100.00;96153.19;5059388;28;20567;-71
2021/05/02 08:01:28;;;;;;;41.97;24.20;;;;;;;7.09;100.00;96155.97;5058424;28;20212;-71
2021/05/02 08:03:54;;;;;;;37.67;20.63;;;;;;;7.06;100.00;96165.94;5058597;28;20208;-71
2021/05/02 08:06:20;;;;;;;42.30;23.97;;;;;;;7.09;100.00;96163.00;5058619;28;20312;-71
2021/05/02 08:08:46;;;;;;;41.90;25.27;;;;;;;7.04;100.00;96162.66;5059344;28;20879;-72
2021/05/02 08:11:12;;;;;;;44.10;24.63;;;;;;;7.07;100.00;96172.84;5058967;28;20249;-71
2021/05/02 08:13:38;;;;;;;44.43;24.30;;;;;;;7.01;100.00;96169.03;5059275;28;20625;-71
2021/05/02 08:16:05;;;;;;;45.40;25.20;;;;;;;6.98;100.00;96174.59;5058931;28;20203;-71
2021/05/02 08:18:30;;;;;;;44.27;25.40;;;;;;;7.01;100.00;96176.06;5060856;28;20223;-71
2021/05/02 08:20:57;;;;;;;48.63;26.27;;;;;;;6.94;100.00;96180.31;5059367;28;20197;-71
2021/05/02 08:23:23;;;;;;;43.90;26.33;;;;;;;6.89;100.00;96182.56;5059489;28;20573;-71
2021/05/02 08:25:49;;;;;;;44.97;26.37;;;;;;;6.83;100.00;96183.19;5057478;28;20266;-71
2021/05/02 08:28:15;;;;;;;42.70;22.97;;;;;;;6.83;100.00;96188.44;5059250;28;20730;-72
2021/05/02 08:30:42;;;;;;;47.43;25.53;;;;;;;6.82;100.00;96192.00;5059344;28;20291;-72
2021/05/02 08:33:08;;;;;;;44.87;25.97;;;;;;;6.88;100.00;96188.78;5058819;28;20200;-71
2021/05/02 08:35:34;;;;;;;54.77;30.70;;;;;;;7.07;100.00;96183.31;5059058;28;20696;-71
2021/05/02 08:38:00;;;;;;;54.10;30.83;;;;;;;7.11;100.00;96190.69;5055491;28;20258;-70
2021/05/02 08:40:26;;;;;;;51.47;28.10;;;;;;;7.20;100.00;96187.13;5059762;28;20224;-72
2021/05/02 08:42:53;;;;;;;57.07;28.30;;;;;;;7.27;100.00;96182.91;5059047;28;20215;-72
2021/05/02 08:45:22;;;;;;;57.17;30.37;;;;;;;7.31;100.00;96192.09;5058028;28;20200;-70
2021/05/02 08:47:49;;;;;;;53.93;29.57;;;;;;;7.05;100.00;96201.81;5058869;28;20215;-72
2021/05/02 08:50:15;;;;;;;53.90;29.33;;;;;;;6.98;100.00;96199.97;5058739;28;21296;-71
2021/05/02 08:52:41;;;;;;;56.67;31.97;;;;;;;6.96;100.00;96200.13;5058230;28;20216;-72
2021/05/02 08:55:08;;;;;;;53.47;30.47;;;;;;;6.94;100.00;96202.06;5057973;28;20200;-71
2021/05/02 08:57:35;;;;;;;49.20;26.50;;;;;;;6.90;100.00;96200.75;5056360;28;20216;-71
2021/05/02 09:00:01;;;;;;;52.57;27.37;;;;;;;6.85;100.00;96202.19;5058504;28;20217;-72
2021/05/02 09:02:29;;;;;;;47.60;26.37;;;;;;;6.82;100.00;96211.19;5058960;28;20205;-72
2021/05/02 09:04:59;;;;;;;55.77;30.83;;;;;;;6.91;100.00;96209.41;5058296;28;20662;-70
2021/05/02 09:07:25;;;;;;;61.07;33.87;;;;;;;6.95;100.00;96206.34;5058178;28;21010;-71
2021/05/02 09:09:52;;;;;;;58.87;33.03;;;;;;;7.03;100.00;96209.00;5057773;28;20228;-72
2021/05/02 09:12:20;;;;;;;53.87;30.20;;;;;;;7.04;100.00;96215.03;5058656;28;20751;-70
2021/05/02 09:14:47;;;;;;;54.03;28.87;;;;;;;7.01;100.00;96212.75;5058445;28;20200;-71
2021/05/02 09:17:15;;;;;;;49.77;28.70;;;;;;;7.09;100.00;96208.38;5057542;28;20576;-70
2021/05/02 09:19:46;;;;;;;50.23;27.07;;;;;;;7.19;100.00;96209.06;5057874;28;20271;-71
2021/05/02 09:22:14;;;;;;;49.30;26.93;;;;;;;7.47;100.00;96219.19;5058759;28;20296;-71
2021/05/02 09:24:41;;;;;;;48.30;28.10;;;;;;;7.59;100.00;96215.28;5058136;28;20212;-70
2021/05/02 09:27:09;;;;;;;48.93;27.37;;;;;;;7.57;100.00;96214.63;5057451;28;20204;-71
2021/05/02 09:29:36;;;;;;;44.00;25.17;;;;;;;7.57;100.00;96209.38;5058997;28;20251;-71
2021/05/02 09:32:03;;;;;;;51.70;27.77;;;;;;;7.74;100.00;96216.31;5058653;28;20223;-71
2021/05/02 09:34:30;;;;;;;51.80;28.33;;;;;;;7.75;100.00;96217.13;5057768;28;20196;-72
2021/05/02 09:36:59;;;;;;;48.40;27.37;;;;;;;7.66;100.00;96212.84;5057686;28;20741;-70
2021/05/02 09:39:41;;;;;;;51.37;29.87;;;;;;;7.86;100.00;96220.28;5058668;28;20235;-71
2021/05/02 09:42:10;;;;;;;52.80;29.73;;;;;;;7.87;100.00;96219.31;5058564;28;20291;-72
2021/05/02 09:44:40;;;;;;;52.93;30.23;;;;;;;7.93;100.00;96216.84;5058312;28;20207;-71
2021/05/02 09:47:28;;;;;;;50.77;29.47;;;;;;;7.87;100.00;96222.72;5057288;28;20208;-71
2021/05/02 09:50:13;;;;;;;54.70;30.87;;;;;;;8.17;100.00;96224.81;5057264;28;20221;-72
2021/05/02 09:52:41;;;;;;;55.83;30.40;;;;;;;8.09;100.00;96226.56;5058077;28;20204;-71
2021/05/02 09:55:31;;;;;;;52.00;29.40;;;;;;;8.04;100.00;96228.84;5056105;28;20196;-71
2021/05/02 09:58:01;;;;;;;54.87;29.50;;;;;;;8.16;100.00;96228.41;5055323;28;20200;-71
2021/05/02 10:00:29;;;;;;;54.80;31.80;;;;;;;8.39;100.00;96231.19;5057320;28;20277;-71
2021/05/02 10:02:55;;;;;;;60.87;33.70;;;;;;;8.46;100.00;96240.88;5057701;28;20211;-72
2021/05/02 10:05:22;;;;;;;59.70;30.90;;;;;;;8.51;100.00;96234.16;5056400;28;21129;-70
2021/05/02 10:07:48;;;;;;;53.03;30.73;;;;;;;8.40;100.00;96238.09;5057870;28;20200;-71
2021/05/02 10:10:14;;;;;;;52.13;29.70;;;;;;;8.35;100.00;96228.09;5057237;28;20208;-71
2021/05/02 10:12:41;;;;;;;52.43;29.23;;;;;;;8.42;100.00;96233.50;5058084;28;20215;-70
2021/05/02 10:15:08;;;;;;;51.03;29.90;;;;;;;8.38;100.00;96233.00;5056505;28;20201;-70
2021/05/02 10:17:34;;;;;;;48.03;27.80;;;;;;;8.38;100.00;96229.56;5057952;28;20253;-70
2021/05/02 10:20:00;;;;;;;47.77;27.93;;;;;;;8.42;100.00;96233.50;5056863;28;20231;-71
2021/05/02 10:22:26;;;;;;;51.37;29.93;;;;;;;8.55;100.00;96238.09;5057473;28;20200;-72
2021/05/02 10:24:52;;;;;;;49.73;28.80;;;;;;;8.48;100.00;96234.47;5057756;28;20212;-70
2021/05/02 10:27:19;;;;;;;48.87;27.77;;;;;;;8.50;100.00;96240.41;5055713;28;20207;-72
2021/05/02 10:29:49;;;;;;;51.00;29.03;;;;;;;8.50;100.00;96232.53;5057522;28;20231;-71
2021/05/02 10:32:20;;;;;;;55.30;30.80;;;;;;;8.57;100.00;96237.94;5057533;28;20204;-72
2021/05/02 10:34:48;;;;;;;51.00;29.27;;;;;;;8.65;100.00;96236.09;5057425;28;20258;-72
2021/05/02 10:37:36;;;;;;;53.00;30.17;;;;;;;8.73;100.00;96238.75;5056101;28;20196;-70
2021/05/02 10:40:09;;;;;;;51.37;29.60;;;;;;;8.72;100.00;96237.09;5057790;28;20224;-72
2021/05/02 10:42:41;;;;;;;51.40;30.13;;;;;;;8.69;100.00;96236.59;5057162;28;20204;-71
2021/05/02 10:45:42;;;;;;;48.13;28.63;;;;;;;8.81;100.00;96236.09;5056258;28;20553;-72
2021/05/02 10:48:30;;;;;;;43.67;26.83;;;;;;;8.55;100.00;96234.63;5053979;28;20280;-71
2021/05/02 10:50:56;;;;;;;42.57;24.90;;;;;;;8.63;100.00;96232.84;5056883;28;20200;-71
2021/05/02 10:53:23;;;;;;;41.07;26.07;;;;;;;8.52;100.00;96240.22;5056109;28;20685;-72
2021/05/02 10:55:52;;;;;;;44.80;26.27;;;;;;;8.57;100.00;96237.94;5056306;28;20200;-71
2021/05/02 10:58:21;;;;;;;48.73;28.03;;;;;;;8.78;100.00;96246.13;5056425;28;20710;-72
2021/05/02 11:00:49;;;;;;;38.47;22.93;;;;;;;8.74;100.00;96244.81;5053051;28;20270;-71
2021/05/02 11:03:52;;;;;;;45.27;27.43;;;;;;;9.12;100.00;96243.09;5056685;28;20212;-71
2021/05/02 11:06:54;;;;;;;41.90;26.70;;;;;;;9.59;100.00;96235.25;5055778;28;20241;-71
2021/05/02 11:09:22;;;;;;;39.37;23.63;;;;;;;9.81;97.71;96230.84;5056743;28;20263;-71
2021/05/02 11:11:50;;;;;;;36.87;23.27;;;;;;;9.51;93.76;96222.94;5056206;28;20262;-72
2021/05/02 11:14:36;;;;;;;36.07;23.07;;;;;;;9.89;94.88;96225.53;5056709;28;20200;-71
2021/05/02 11:17:28;;;;;;;34.40;22.17;;;;;;;9.83;93.54;96234.13;5055215;28;20643;-71
2021/05/02 11:19:58;;;;;;;34.07;20.90;;;;;;;10.11;96.32;96224.78;5056866;28;20311;-71
2021/05/02 11:22:26;;;;;;;35.67;22.53;;;;;;;10.22;96.49;96221.75;5056701;28;20227;-72
2021/05/02 11:24:54;;;;;;;38.80;20.70;;;;;;;10.11;90.67;96227.41;5056837;28;20203;-71